createdAt,value
2023-04-06T00:01:49.650Z,77.80
2023-04-06T00:04:25.706Z,64.75
2023-04-06T00:09:39.874Z,60.53
2023-04-06T00:12:15.894Z,75.67
2023-04-06T00:14:53.557Z,77.50
2023-04-06T00:20:04.398Z,69.60
2023-04-06T00:22:41.446Z,72.05
2023-04-06T00:25:20.218Z,63.95
2023-04-06T00:27:55.493Z,69.70
2023-04-06T00:30:32.161Z,80.45
2023-04-06T00:33:07.984Z,68.70
2023-04-06T00:35:42.713Z,62.80
2023-04-06T00:38:18.624Z,67.90
2023-04-06T00:40:56.843Z,64.13
2023-04-06T00:43:33.961Z,65.95
2023-04-06T00:46:11.424Z,62.50
2023-04-06T00:48:47.717Z,72.13
2023-04-06T00:51:24.353Z,70.03
2023-04-06T00:54:00.049Z,60.75
2023-04-06T00:56:39.275Z,62.37
2023-04-06T00:59:13.424Z,60.87
2023-04-06T01:01:49.850Z,68.07
2023-04-06T01:04:44.208Z,71.95
2023-04-06T01:07:28.136Z,62.13
2023-04-06T01:10:27.531Z,58.80
2023-04-06T01:13:20.059Z,58.40
2023-04-06T01:16:03.707Z,57.75
2023-04-06T01:18:48.497Z,52.15
2023-04-06T01:21:33.145Z,51.80
2023-04-06T01:24:26.111Z,54.88
2023-04-06T01:27:21.678Z,59.75
2023-04-06T01:30:12.843Z,68.78
2023-04-06T01:32:55.814Z,61.55
2023-04-06T01:38:29.644Z,59.20
2023-04-06T01:41:09.174Z,57.10
2023-04-06T01:43:57.246Z,61.15
2023-04-06T01:46:36.396Z,59.95
2023-04-06T01:49:14.057Z,59.63
2023-04-06T01:51:55.655Z,49.22
2023-04-06T01:54:30.460Z,58.38
2023-04-06T01:57:27.123Z,53.70
2023-04-06T02:00:08.863Z,69.82
2023-04-06T02:02:53.502Z,69.82
2023-04-06T02:05:39.199Z,64.05
2023-04-06T02:08:25.873Z,68.63
2023-04-06T02:11:01.352Z,77.87
2023-04-06T02:13:44.597Z,60.15
2023-04-06T02:16:23.751Z,79.90
2023-04-06T02:18:58.659Z,66.90
2023-04-06T02:21:36.210Z,72.07
2023-04-06T02:24:12.232Z,66.72
2023-04-06T02:29:24.442Z,72.03
2023-04-06T02:32:01.226Z,75.20
2023-04-06T02:34:37.960Z,65.60
2023-04-06T02:37:13.761Z,62.47
2023-04-06T02:39:48.642Z,71.85
2023-04-06T02:42:26.607Z,69.60
2023-04-06T02:45:05.771Z,66.60
2023-04-06T02:47:46.921Z,74.80
2023-04-06T02:50:24.800Z,63.65
2023-04-06T02:53:09.921Z,71.68
2023-04-06T02:55:48.080Z,66.65
2023-04-06T02:58:24.166Z,63.92
2023-04-06T03:01:07.052Z,63.87
2023-04-06T03:03:45.077Z,70.67
2023-04-06T03:06:31.706Z,63.60
2023-04-06T03:09:15.797Z,67.97
2023-04-06T03:11:53.254Z,61.20
2023-04-06T03:14:32.099Z,59.03
2023-04-06T03:17:06.645Z,58.67
2023-04-06T03:19:44.877Z,61.95
2023-04-06T03:22:22.149Z,57.88
2023-04-06T03:25:03.141Z,65.22
2023-04-06T03:27:41.713Z,53.45
2023-04-06T03:30:21.799Z,54.70
2023-04-06T03:32:57.121Z,59.83
2023-04-06T03:35:38.805Z,46.22
2023-04-06T03:38:14.288Z,47.55
2023-04-06T03:40:50.738Z,49.70
2023-04-06T03:43:30.566Z,56.50
2023-04-06T03:46:07.223Z,46.67
2023-04-06T03:48:44.221Z,50.75
2023-04-06T03:51:27.546Z,49.75
2023-04-06T03:54:03.463Z,43.75
2023-04-06T03:56:38.357Z,47.13
2023-04-06T03:59:13.880Z,50.47
2023-04-06T04:01:48.598Z,46.65
2023-04-06T04:04:24.079Z,39.47
2023-04-06T04:07:02.791Z,39.63
2023-04-06T04:09:42.512Z,50.80
2023-04-06T04:12:18.339Z,46.20
2023-04-06T04:14:53.242Z,52.10
2023-04-06T04:17:30.382Z,48.30
2023-04-06T04:20:05.750Z,41.25
2023-04-06T04:22:43.032Z,53.65
2023-04-06T04:25:19.132Z,50.50
2023-04-06T04:27:57.656Z,47.05
2023-04-06T04:30:34.302Z,41.35
2023-04-06T04:35:45.877Z,50.92
2023-04-06T04:38:29.025Z,47.45
2023-04-06T04:41:08.504Z,44.10
2023-04-06T04:43:47.685Z,51.47
2023-04-06T04:46:28.536Z,53.25
2023-04-06T04:49:04.748Z,59.03
2023-04-06T04:51:41.678Z,57.30
2023-04-06T04:54:24.918Z,64.00
2023-04-06T04:57:03.181Z,59.20
2023-04-06T04:59:49.262Z,54.78
2023-04-06T05:02:32.474Z,65.15
2023-04-06T05:05:30.042Z,62.55
2023-04-06T05:08:05.068Z,61.88
2023-04-06T05:10:54.445Z,55.60
2023-04-06T05:13:30.955Z,70.57
2023-04-06T05:16:07.855Z,55.65
2023-04-06T05:18:44.104Z,54.47
2023-04-06T05:21:21.662Z,58.70
2023-04-06T05:24:06.893Z,49.70
2023-04-06T05:26:46.042Z,56.05
2023-04-06T05:29:30.094Z,62.50
2023-04-06T05:32:08.198Z,68.00
2023-04-06T05:34:45.350Z,75.87
2023-04-06T05:37:21.207Z,81.20
2023-04-06T05:39:57.441Z,91.35
2023-04-06T05:42:43.877Z,92.32
2023-04-06T05:45:22.699Z,103.35
2023-04-06T05:48:06.059Z,111.77
2023-04-06T05:50:42.180Z,108.60
2023-04-06T05:53:22.435Z,106.80
2023-04-06T05:56:06.198Z,82.05
2023-04-06T05:58:45.441Z,76.10
2023-04-06T06:01:27.500Z,63.40
2023-04-06T06:04:05.382Z,53.97
2023-04-06T06:06:45.562Z,59.67
2023-04-06T06:09:26.650Z,57.15
2023-04-06T06:12:16.968Z,50.50
2023-04-06T06:14:55.813Z,52.75
2023-04-06T06:17:33.103Z,49.30
2023-04-06T06:20:11.823Z,43.10
2023-04-06T06:22:48.702Z,46.55
2023-04-06T06:25:28.550Z,40.35
2023-04-06T06:28:03.539Z,39.20
2023-04-06T06:30:44.296Z,42.28
2023-04-06T06:33:22.797Z,39.38
2023-04-06T06:36:02.955Z,37.20
2023-04-06T06:38:40.653Z,37.28
2023-04-06T06:41:15.730Z,39.85
2023-04-06T06:43:51.907Z,36.42
2023-04-06T06:49:05.872Z,38.65
2023-04-06T06:51:41.187Z,36.97
2023-04-06T06:54:20.272Z,35.20
2023-04-06T06:56:56.937Z,34.45
2023-04-06T06:59:32.695Z,45.03
2023-04-06T07:02:17.108Z,36.90
2023-04-06T07:04:53.622Z,33.00
2023-04-06T07:07:30.436Z,35.95
2023-04-06T07:10:06.364Z,36.45
2023-04-06T07:12:42.462Z,36.65
2023-04-06T07:15:18.589Z,38.55
2023-04-06T07:20:43.704Z,39.30
2023-04-06T07:23:22.368Z,32.75
2023-04-06T07:26:02.636Z,36.83
2023-04-06T07:28:39.326Z,32.40
2023-04-06T07:31:16.966Z,34.65
2023-04-06T07:33:59.620Z,31.45
2023-04-06T07:36:35.228Z,33.47
2023-04-06T07:39:13.652Z,34.58
2023-04-06T07:41:50.134Z,26.75
2023-04-06T07:44:25.778Z,29.20
2023-04-06T07:47:04.379Z,23.65
2023-04-06T07:49:44.715Z,23.58
2023-04-06T07:52:43.338Z,25.55
2023-04-06T07:55:17.614Z,18.20
2023-04-06T07:57:55.727Z,11.63
2023-04-06T08:00:35.289Z,20.08
2023-04-06T08:03:12.049Z,15.75
2023-04-06T08:05:53.203Z,19.40
2023-04-06T08:08:28.450Z,29.92
2023-04-06T08:11:04.831Z,24.80
2023-04-06T08:13:41.075Z,20.20
2023-04-06T08:16:18.436Z,22.92
2023-04-06T08:18:55.221Z,29.20
2023-04-06T08:21:35.141Z,18.90
2023-04-06T08:24:15.466Z,19.25
2023-04-06T08:26:52.760Z,17.00
2023-04-06T08:29:29.234Z,18.15
2023-04-06T08:32:06.519Z,18.42
2023-04-06T08:34:42.518Z,19.05
2023-04-06T08:37:23.121Z,16.45
2023-04-06T08:40:00.229Z,14.68
2023-04-06T08:42:40.748Z,12.82
2023-04-06T08:45:17.275Z,21.05
2023-04-06T08:47:53.608Z,15.00
2023-04-06T08:50:29.629Z,11.80
2023-04-06T08:53:09.961Z,14.18
2023-04-06T08:55:44.664Z,13.25
2023-04-06T08:58:31.515Z,14.88
2023-04-06T09:01:12.576Z,16.92
2023-04-06T09:03:49.325Z,14.23
2023-04-06T09:06:25.739Z,14.27
2023-04-06T09:09:06.185Z,12.03
2023-04-06T09:11:50.423Z,12.48
2023-04-06T09:14:40.480Z,11.20
2023-04-06T09:17:24.852Z,10.18
2023-04-06T09:20:02.019Z,10.88
2023-04-06T09:22:44.473Z,9.25
2023-04-06T09:25:28.222Z,9.35
2023-04-06T09:28:04.683Z,13.27
2023-04-06T09:30:40.731Z,10.73
2023-04-06T09:35:55.175Z,13.80
2023-04-06T09:38:35.409Z,11.77
2023-04-06T09:41:14.679Z,13.15
2023-04-06T09:43:50.923Z,9.02
2023-04-06T09:46:28.519Z,10.43
2023-04-06T09:49:04.017Z,13.07
2023-04-06T09:51:42.458Z,11.50
2023-04-06T09:54:21.481Z,13.25
2023-04-06T09:57:06.403Z,10.85
2023-04-06T09:59:46.025Z,11.13
2023-04-06T10:02:26.223Z,10.95
2023-04-06T10:05:06.208Z,16.55
2023-04-06T10:07:57.153Z,9.43
2023-04-06T10:10:37.087Z,8.05
2023-04-06T10:13:16.514Z,10.25
2023-04-06T10:15:56.407Z,8.10
2023-04-06T10:18:34.496Z,9.30
2023-04-06T10:21:11.765Z,9.30
2023-04-06T10:23:50.153Z,9.60
2023-04-06T10:26:26.451Z,31.73
2023-04-06T10:29:07.857Z,7.47
2023-04-06T10:31:47.981Z,11.50
2023-04-06T10:34:22.931Z,10.43
2023-04-06T10:36:59.610Z,10.35
2023-04-06T10:39:36.698Z,7.70
2023-04-06T10:42:15.158Z,7.90
2023-04-06T10:44:56.504Z,7.97
2023-04-06T10:47:34.578Z,8.95
2023-04-06T10:50:08.385Z,11.52
2023-04-06T10:52:47.232Z,9.57
2023-04-06T10:55:22.866Z,12.48
2023-04-06T10:57:58.062Z,10.20
2023-04-06T11:00:49.515Z,7.27
2023-04-06T11:03:26.500Z,8.30
2023-04-06T11:06:02.918Z,9.68
2023-04-06T11:08:39.211Z,7.28
2023-04-06T11:11:17.493Z,7.95
2023-04-06T11:13:56.556Z,12.10
2023-04-06T11:16:35.170Z,9.05
2023-04-06T11:19:14.256Z,7.30
2023-04-06T11:21:51.910Z,9.70
2023-04-06T11:24:28.594Z,9.48
2023-04-06T11:27:05.742Z,14.15
2023-04-06T11:29:42.572Z,10.07
2023-04-06T11:32:26.062Z,11.15
2023-04-06T11:35:03.633Z,11.10
2023-04-06T11:37:39.283Z,9.02
2023-04-06T11:40:16.317Z,9.02
2023-04-06T11:42:57.935Z,12.55
2023-04-06T11:45:33.760Z,13.18
2023-04-06T11:48:23.747Z,12.35
2023-04-06T11:51:05.061Z,12.10
2023-04-06T11:53:50.148Z,10.45
2023-04-06T11:56:29.743Z,13.73
2023-04-06T11:59:06.474Z,13.85
2023-04-06T12:01:49.885Z,10.95
2023-04-06T12:04:28.106Z,9.80
2023-04-06T12:07:05.031Z,10.55
2023-04-06T12:09:42.280Z,25.02
2023-04-06T12:12:19.816Z,40.97
2023-04-06T12:14:55.913Z,14.50
2023-04-06T12:17:34.282Z,10.73
2023-04-06T12:20:25.994Z,9.90
2023-04-06T12:23:03.345Z,20.20
2023-04-06T12:25:40.445Z,9.80
2023-04-06T12:28:18.537Z,10.00
2023-04-06T12:30:57.435Z,11.13
2023-04-06T12:33:32.560Z,8.85
2023-04-06T12:36:17.176Z,9.47
2023-04-06T12:38:53.736Z,10.15
2023-04-06T12:41:32.446Z,10.68
2023-04-06T12:44:08.851Z,10.55
2023-04-06T12:46:44.823Z,7.80
2023-04-06T12:52:10.725Z,8.77
2023-04-06T12:54:47.558Z,20.25
2023-04-06T12:57:25.883Z,11.45
2023-04-06T13:00:01.898Z,9.85
2023-04-06T13:05:23.040Z,9.55
2023-04-06T13:08:01.870Z,11.98
2023-04-06T13:10:38.296Z,8.10
2023-04-06T13:13:13.948Z,9.85
2023-04-06T13:15:51.642Z,8.80
2023-04-06T13:18:27.646Z,9.02
2023-04-06T13:23:42.021Z,8.07
2023-04-06T13:26:18.432Z,7.75
2023-04-06T13:28:55.092Z,9.90
2023-04-06T13:31:29.869Z,9.98
2023-04-06T13:34:05.465Z,9.52
2023-04-06T13:36:43.087Z,9.63
2023-04-06T13:39:20.681Z,10.90
2023-04-06T13:41:58.041Z,12.25
2023-04-06T13:44:34.266Z,11.52
2023-04-06T13:49:43.932Z,9.15
2023-04-06T13:52:19.957Z,10.45
2023-04-06T13:57:32.859Z,8.65
2023-04-06T14:00:10.714Z,12.20
2023-04-06T14:02:46.424Z,8.38
2023-04-06T14:05:22.421Z,11.77
2023-04-06T14:08:01.311Z,12.88
2023-04-06T14:10:43.552Z,10.73
2023-04-06T14:13:20.501Z,9.77
2023-04-06T14:15:59.168Z,9.50
2023-04-06T14:18:36.912Z,9.68
2023-04-06T14:21:13.330Z,11.63
2023-04-06T14:23:49.654Z,8.93
2023-04-06T14:26:28.260Z,10.90
2023-04-06T14:29:03.918Z,11.35
2023-04-06T14:31:39.427Z,13.45
2023-04-06T14:34:16.565Z,8.77
2023-04-06T14:37:06.703Z,12.48
2023-04-06T14:39:46.258Z,10.10
2023-04-06T14:42:24.656Z,10.27
2023-04-06T14:45:00.366Z,8.27
2023-04-06T14:47:37.330Z,9.80
2023-04-06T14:50:15.204Z,8.73
2023-04-06T14:52:54.976Z,9.75
2023-04-06T14:55:30.221Z,10.07
2023-04-06T14:58:09.413Z,11.10
2023-04-06T15:00:44.750Z,30.73
2023-04-06T15:03:22.854Z,9.40
2023-04-06T15:05:58.065Z,11.75
2023-04-06T15:08:32.697Z,9.85
2023-04-06T15:11:09.821Z,11.32
2023-04-06T15:13:48.101Z,9.80
2023-04-06T15:16:23.703Z,8.30
2023-04-06T15:19:06.190Z,10.20
2023-04-06T15:21:42.810Z,12.10
2023-04-06T15:24:17.757Z,10.15
2023-04-06T15:26:53.050Z,10.35
2023-04-06T15:29:31.309Z,9.93
2023-04-06T15:32:07.589Z,8.25
2023-04-06T15:34:43.040Z,9.52
2023-04-06T15:37:18.856Z,10.75
2023-04-06T15:39:57.558Z,10.50
2023-04-06T15:42:33.259Z,9.40
2023-04-06T15:45:14.377Z,11.70
2023-04-06T15:47:52.845Z,8.95
2023-04-06T15:50:28.441Z,8.63
2023-04-06T15:55:44.087Z,11.68
2023-04-06T15:58:18.596Z,11.10
2023-04-06T16:00:59.336Z,9.38
2023-04-06T16:03:37.315Z,17.50
2023-04-06T16:06:13.238Z,9.85
2023-04-06T16:08:49.402Z,11.75
2023-04-06T16:11:25.772Z,9.98
2023-04-06T16:14:01.709Z,13.48
2023-04-06T16:16:40.238Z,13.02
2023-04-06T16:19:17.353Z,9.85
2023-04-06T16:21:53.017Z,10.98
2023-04-06T16:24:28.355Z,12.75
2023-04-06T16:27:06.290Z,11.80
2023-04-06T16:29:41.783Z,11.65
2023-04-06T16:32:19.934Z,13.07
2023-04-06T16:34:57.353Z,11.70
2023-04-06T16:37:34.157Z,10.10
2023-04-06T16:40:15.939Z,14.15
2023-04-06T16:42:53.291Z,13.30
2023-04-06T16:45:29.658Z,10.90
2023-04-06T16:48:08.057Z,12.98
2023-04-06T16:50:42.963Z,15.48
2023-04-06T16:53:23.906Z,14.83
2023-04-06T16:56:03.755Z,17.15
2023-04-06T16:58:38.476Z,12.47
2023-04-06T17:01:21.144Z,14.63
2023-04-06T17:03:58.858Z,18.55
2023-04-06T17:06:34.450Z,14.25
2023-04-06T17:09:13.899Z,15.90
2023-04-06T17:11:49.397Z,15.38
2023-04-06T17:14:25.616Z,18.63
2023-04-06T17:17:01.112Z,15.17
2023-04-06T17:19:39.849Z,17.98
2023-04-06T17:22:21.461Z,20.83
2023-04-06T17:24:55.837Z,21.48
2023-04-06T17:27:31.634Z,19.15
2023-04-06T17:30:08.724Z,19.20
2023-04-06T17:32:54.799Z,17.40
2023-04-06T17:35:31.328Z,21.38
2023-04-06T17:38:11.174Z,23.65
2023-04-06T17:40:42.693Z,15.52
2023-04-06T17:43:22.310Z,28.33
2023-04-06T17:46:01.983Z,30.00
2023-04-06T17:48:37.751Z,26.42
2023-04-06T17:51:14.477Z,20.88
2023-04-06T17:53:54.177Z,30.15
2023-04-06T17:56:31.086Z,33.03
2023-04-06T17:59:10.949Z,25.40
2023-04-06T18:01:46.955Z,19.20
2023-04-06T18:04:25.012Z,19.38
2023-04-06T18:07:00.026Z,18.60
2023-04-06T18:09:38.604Z,16.92
2023-04-06T18:12:17.750Z,15.00
2023-04-06T18:14:53.873Z,20.92
2023-04-06T18:20:05.788Z,17.80
2023-04-06T18:22:41.544Z,25.05
2023-04-06T18:25:21.081Z,20.25
2023-04-06T18:27:57.615Z,19.52
2023-04-06T18:30:33.718Z,19.60
2023-04-06T18:35:47.831Z,21.70
2023-04-06T18:38:23.051Z,21.40
2023-04-06T18:41:00.848Z,19.92
2023-04-06T18:43:37.302Z,19.90
2023-04-06T18:46:16.805Z,18.88
2023-04-06T18:48:53.353Z,23.35
2023-04-06T18:51:33.751Z,24.35
2023-04-06T18:54:10.083Z,23.70
2023-04-06T18:56:49.617Z,30.50
2023-04-06T18:59:30.596Z,29.67
2023-04-06T19:02:07.571Z,31.35
2023-04-06T19:04:43.553Z,28.15
2023-04-06T19:07:20.322Z,28.15
2023-04-06T19:09:57.893Z,25.60
2023-04-06T19:12:39.640Z,25.30
2023-04-06T19:15:15.916Z,27.50
2023-04-06T19:17:51.792Z,26.58
2023-04-06T19:20:28.513Z,25.92
2023-04-06T19:23:05.186Z,25.90
2023-04-06T19:25:40.312Z,22.77
2023-04-06T19:28:19.940Z,34.95
2023-04-06T19:30:56.379Z,37.75
2023-04-06T19:33:33.454Z,29.15
2023-04-06T19:36:11.073Z,27.40
2023-04-06T19:38:46.757Z,28.42
2023-04-06T19:41:23.435Z,20.33
2023-04-06T19:44:01.406Z,26.75
2023-04-06T19:46:38.876Z,23.77
2023-04-06T19:49:13.899Z,25.88
2023-04-06T19:51:49.309Z,21.07
2023-04-06T19:54:25.322Z,42.50
2023-04-06T19:57:01.689Z,50.95
2023-04-06T19:59:40.973Z,45.10
2023-04-06T20:02:19.580Z,36.88
2023-04-06T20:04:56.883Z,42.00
2023-04-06T20:07:32.699Z,40.00
2023-04-06T20:10:08.417Z,29.50
2023-04-06T20:12:46.247Z,33.58
2023-04-06T20:15:25.305Z,31.88
2023-04-06T20:18:02.825Z,32.55
2023-04-06T20:20:38.551Z,34.25
2023-04-06T20:23:14.706Z,33.97
2023-04-06T20:28:25.418Z,25.05
2023-04-06T20:31:04.501Z,26.67
2023-04-06T20:33:41.635Z,24.90
2023-04-06T20:36:20.916Z,28.05
2023-04-06T20:38:57.911Z,32.10
2023-04-06T20:41:35.165Z,28.90
2023-04-06T20:44:11.386Z,36.23
2023-04-06T20:46:51.252Z,37.13
2023-04-06T20:49:32.269Z,37.17
2023-04-06T20:52:09.606Z,35.13
2023-04-06T20:54:48.932Z,36.00
2023-04-06T20:57:22.212Z,38.58
2023-04-06T20:59:57.892Z,40.40
2023-04-06T21:02:37.175Z,36.50
2023-04-06T21:05:14.818Z,38.05
2023-04-06T21:07:51.960Z,36.65
2023-04-06T21:10:28.545Z,36.92
2023-04-06T21:13:04.303Z,37.28
2023-04-06T21:15:41.706Z,34.10
2023-04-06T21:18:20.415Z,33.90
2023-04-06T21:20:56.639Z,34.20
2023-04-06T21:23:34.607Z,30.90
2023-04-06T21:26:11.029Z,29.17
2023-04-06T21:28:47.207Z,37.67
2023-04-06T21:31:23.557Z,31.15
2023-04-06T21:36:37.357Z,31.63
2023-04-06T21:39:13.832Z,31.77
2023-04-06T21:41:49.912Z,32.90
2023-04-06T21:47:00.237Z,32.03
2023-04-06T21:49:40.792Z,33.00
2023-04-06T21:52:14.651Z,30.67
2023-04-06T21:54:50.460Z,34.13
2023-04-06T21:57:26.879Z,32.13
2023-04-06T22:00:02.524Z,32.50
2023-04-06T22:02:39.421Z,35.92
2023-04-06T22:05:18.526Z,32.75
2023-04-06T22:07:50.419Z,29.48
2023-04-06T22:10:26.551Z,33.70
2023-04-06T22:15:39.689Z,36.53
2023-04-06T22:18:12.729Z,34.70
2023-04-06T22:21:21.823Z,37.53
2023-04-06T22:23:56.861Z,33.33
2023-04-06T22:26:31.705Z,35.33
2023-04-06T22:29:07.167Z,32.50
2023-04-06T22:31:43.391Z,34.38
2023-04-06T22:34:18.768Z,32.80
2023-04-06T22:36:57.957Z,33.55
2023-04-06T22:39:33.434Z,31.30
2023-04-06T22:42:10.056Z,37.95
2023-04-06T22:44:46.655Z,35.73
2023-04-06T22:47:22.544Z,35.03
2023-04-06T22:49:58.460Z,28.80
2023-04-06T22:52:37.090Z,60.30
2023-04-06T22:55:12.634Z,224.10
2023-04-06T22:57:48.283Z,135.18
2023-04-06T23:03:01.780Z,25.83
2023-04-06T23:05:36.989Z,25.52
2023-04-06T23:08:14.649Z,29.77
2023-04-06T23:10:49.944Z,24.05
2023-04-06T23:13:25.098Z,25.20
2023-04-06T23:16:00.522Z,25.73
2023-04-06T23:18:36.514Z,20.60
2023-04-06T23:23:48.588Z,20.38
2023-04-06T23:26:25.202Z,25.40
2023-04-06T23:28:59.785Z,22.70
2023-04-06T23:31:35.838Z,21.23
2023-04-06T23:36:45.729Z,19.23
2023-04-06T23:39:23.806Z,16.35
2023-04-06T23:42:00.557Z,21.27
2023-04-06T23:44:36.450Z,22.23
2023-04-06T23:47:12.415Z,23.30
2023-04-06T23:49:47.659Z,24.98
2023-04-06T23:52:23.330Z,25.00
2023-04-06T23:55:01.443Z,24.45
2023-04-06T23:57:37.101Z,20.77
